sensor_id;sensor_type;location;lat;lon;timestamp;temperature;humidity
65864;SHT30;52639;51.180;20.460;2023-03-09T00:02:11;2.02;86.53
65864;SHT30;52639;51.180;20.460;2023-03-09T00:06:14;2.01;86.41
65864;SHT30;52639;51.180;20.460;2023-03-09T00:10:17;2.00;86.56
65864;SHT30;52639;51.180;20.460;2023-03-09T00:14:21;1.95;86.59
65864;SHT30;52639;51.180;20.460;2023-03-09T00:18:25;1.98;86.77
65864;SHT30;52639;51.180;20.460;2023-03-09T00:22:28;1.97;87.05
65864;SHT30;52639;51.180;20.460;2023-03-09T00:26:31;2.00;86.86
65864;SHT30;52639;51.180;20.460;2023-03-09T00:30:35;1.98;86.70
65864;SHT30;52639;51.180;20.460;2023-03-09T00:34:37;2.00;86.78
65864;SHT30;52639;51.180;20.460;2023-03-09T00:38:40;2.01;86.82
65864;SHT30;52639;51.180;20.460;2023-03-09T00:42:44;2.02;86.85
65864;SHT30;52639;51.180;20.460;2023-03-09T00:46:49;2.01;86.86
65864;SHT30;52639;51.180;20.460;2023-03-09T00:50:52;2.01;86.89
65864;SHT30;52639;51.180;20.460;2023-03-09T00:54:54;2.01;87.00
65864;SHT30;52639;51.180;20.460;2023-03-09T00:58:58;1.93;87.20
65864;SHT30;52639;51.180;20.460;2023-03-09T01:03:02;1.95;87.10
65864;SHT30;52639;51.180;20.460;2023-03-09T01:07:05;1.95;87.21
65864;SHT30;52639;51.180;20.460;2023-03-09T01:11:10;1.93;87.34
65864;SHT30;52639;51.180;20.460;2023-03-09T01:15:14;1.94;87.35
65864;SHT30;52639;51.180;20.460;2023-03-09T01:19:18;1.91;87.24
65864;SHT30;52639;51.180;20.460;2023-03-09T01:23:21;1.93;87.38
65864;SHT30;52639;51.180;20.460;2023-03-09T01:27:25;1.94;87.31
65864;SHT30;52639;51.180;20.460;2023-03-09T01:31:27;1.93;87.38
65864;SHT30;52639;51.180;20.460;2023-03-09T01:35:32;1.91;87.40
65864;SHT30;52639;51.180;20.460;2023-03-09T01:39:35;1.91;87.44
65864;SHT30;52639;51.180;20.460;2023-03-09T01:43:39;1.93;87.40
65864;SHT30;52639;51.180;20.460;2023-03-09T01:47:42;1.88;87.40
65864;SHT30;52639;51.180;20.460;2023-03-09T01:51:50;1.91;87.36
65864;SHT30;52639;51.180;20.460;2023-03-09T01:55:55;1.90;87.49
65864;SHT30;52639;51.180;20.460;2023-03-09T02:00:00;1.94;87.51
65864;SHT30;52639;51.180;20.460;2023-03-09T02:04:11;1.93;87.71
65864;SHT30;52639;51.180;20.460;2023-03-09T02:08:17;1.95;87.58
65864;SHT30;52639;51.180;20.460;2023-03-09T02:12:22;1.95;87.67
65864;SHT30;52639;51.180;20.460;2023-03-09T02:16:25;2.01;87.75
65864;SHT30;52639;51.180;20.460;2023-03-09T02:20:32;2.01;88.40
65864;SHT30;52639;51.180;20.460;2023-03-09T02:24:44;2.00;88.20
65864;SHT30;52639;51.180;20.460;2023-03-09T02:28:51;2.01;88.18
65864;SHT30;52639;51.180;20.460;2023-03-09T02:33:02;1.98;87.70
65864;SHT30;52639;51.180;20.460;2023-03-09T02:37:24;1.94;87.67
65864;SHT30;52639;51.180;20.460;2023-03-09T02:41:30;1.95;87.97
65864;SHT30;52639;51.180;20.460;2023-03-09T02:45:35;1.93;87.88
65864;SHT30;52639;51.180;20.460;2023-03-09T02:49:37;1.90;88.00
65864;SHT30;52639;51.180;20.460;2023-03-09T02:53:41;1.88;87.97
65864;SHT30;52639;51.180;20.460;2023-03-09T02:57:44;1.88;88.16
65864;SHT30;52639;51.180;20.460;2023-03-09T03:01:48;1.84;88.00
65864;SHT30;52639;51.180;20.460;2023-03-09T03:05:51;1.77;88.10
65864;SHT30;52639;51.180;20.460;2023-03-09T03:09:54;1.63;89.53
65864;SHT30;52639;51.180;20.460;2023-03-09T03:13:57;1.44;91.22
65864;SHT30;52639;51.180;20.460;2023-03-09T03:18:02;1.35;90.99
65864;SHT30;52639;51.180;20.460;2023-03-09T03:22:06;1.26;92.25
65864;SHT30;52639;51.180;20.460;2023-03-09T03:26:10;1.25;91.56
65864;SHT30;52639;51.180;20.460;2023-03-09T03:30:13;1.20;90.89
65864;SHT30;52639;51.180;20.460;2023-03-09T03:34:17;1.13;91.41
65864;SHT30;52639;51.180;20.460;2023-03-09T03:38:20;1.10;90.83
65864;SHT30;52639;51.180;20.460;2023-03-09T03:42:23;1.02;91.24
65864;SHT30;52639;51.180;20.460;2023-03-09T03:46:26;0.99;92.01
65864;SHT30;52639;51.180;20.460;2023-03-09T03:50:30;0.95;91.81
65864;SHT30;52639;51.180;20.460;2023-03-09T03:54:33;0.93;91.96
65864;SHT30;52639;51.180;20.460;2023-03-09T03:58:36;0.91;91.61
65864;SHT30;52639;51.180;20.460;2023-03-09T04:02:39;0.86;92.08
65864;SHT30;52639;51.180;20.460;2023-03-09T04:06:44;0.81;91.72
65864;SHT30;52639;51.180;20.460;2023-03-09T04:10:48;0.78;91.71
65864;SHT30;52639;51.180;20.460;2023-03-09T04:14:51;0.73;92.26
65864;SHT30;52639;51.180;20.460;2023-03-09T04:18:54;0.64;93.23
65864;SHT30;52639;51.180;20.460;2023-03-09T04:22:58;0.62;92.64
65864;SHT30;52639;51.180;20.460;2023-03-09T04:27:01;0.58;92.79
65864;SHT30;52639;51.180;20.460;2023-03-09T04:31:04;0.57;93.02
65864;SHT30;52639;51.180;20.460;2023-03-09T04:35:09;0.55;92.63
65864;SHT30;52639;51.180;20.460;2023-03-09T04:39:13;0.52;93.15
65864;SHT30;52639;51.180;20.460;2023-03-09T04:43:16;0.52;92.55
65864;SHT30;52639;51.180;20.460;2023-03-09T04:47:20;0.55;91.70
65864;SHT30;52639;51.180;20.460;2023-03-09T04:51:24;0.54;92.09
65864;SHT30;52639;51.180;20.460;2023-03-09T04:55:28;0.50;92.02
65864;SHT30;52639;51.180;20.460;2023-03-09T04:59:31;0.48;92.53
65864;SHT30;52639;51.180;20.460;2023-03-09T05:03:34;0.47;92.07
65864;SHT30;52639;51.180;20.460;2023-03-09T05:07:37;0.44;92.72
65864;SHT30;52639;51.180;20.460;2023-03-09T05:11:43;0.45;93.07
65864;SHT30;52639;51.180;20.460;2023-03-09T05:15:47;0.40;93.41
65864;SHT30;52639;51.180;20.460;2023-03-09T05:19:50;0.45;92.88
65864;SHT30;52639;51.180;20.460;2023-03-09T05:23:53;0.44;92.75
65864;SHT30;52639;51.180;20.460;2023-03-09T05:27:58;0.47;92.26
65864;SHT30;52639;51.180;20.460;2023-03-09T05:32:01;0.45;92.28
65864;SHT30;52639;51.180;20.460;2023-03-09T05:36:14;0.47;92.37
65864;SHT30;52639;51.180;20.460;2023-03-09T05:40:17;0.47;92.68
65864;SHT30;52639;51.180;20.460;2023-03-09T05:44:24;0.48;92.99
65864;SHT30;52639;51.180;20.460;2023-03-09T05:48:27;0.45;93.72
65864;SHT30;52639;51.180;20.460;2023-03-09T05:52:30;0.52;93.62
65864;SHT30;52639;51.180;20.460;2023-03-09T05:56:33;0.54;93.86
65864;SHT30;52639;51.180;20.460;2023-03-09T06:00:37;0.57;94.30
65864;SHT30;52639;51.180;20.460;2023-03-09T06:04:40;0.57;94.51
65864;SHT30;52639;51.180;20.460;2023-03-09T06:08:43;0.55;94.35
65864;SHT30;52639;51.180;20.460;2023-03-09T06:12:46;0.55;93.77
65864;SHT30;52639;51.180;20.460;2023-03-09T06:16:50;0.60;93.55
65864;SHT30;52639;51.180;20.460;2023-03-09T06:20:53;0.60;93.22
65864;SHT30;52639;51.180;20.460;2023-03-09T06:24:56;0.52;94.10
65864;SHT30;52639;51.180;20.460;2023-03-09T06:28:59;0.54;94.36
65864;SHT30;52639;51.180;20.460;2023-03-09T06:33:04;0.55;94.43
65864;SHT30;52639;51.180;20.460;2023-03-09T06:37:07;0.57;94.22
65864;SHT30;52639;51.180;20.460;2023-03-09T06:41:11;0.55;94.72
65864;SHT30;52639;51.180;20.460;2023-03-09T06:45:16;0.60;94.24
65864;SHT30;52639;51.180;20.460;2023-03-09T06:49:20;0.61;93.58
65864;SHT30;52639;51.180;20.460;2023-03-09T06:53:23;0.58;94.14
65864;SHT30;52639;51.180;20.460;2023-03-09T06:57:26;0.61;93.99
65864;SHT30;52639;51.180;20.460;2023-03-09T07:01:29;0.51;95.07
65864;SHT30;52639;51.180;20.460;2023-03-09T07:05:33;0.57;95.20
65864;SHT30;52639;51.180;20.460;2023-03-09T07:09:36;0.57;94.73
65864;SHT30;52639;51.180;20.460;2023-03-09T07:13:39;0.54;95.02
65864;SHT30;52639;51.180;20.460;2023-03-09T07:17:42;0.54;95.09
65864;SHT30;52639;51.180;20.460;2023-03-09T07:21:46;0.52;95.32
65864;SHT30;52639;51.180;20.460;2023-03-09T07:25:49;0.52;95.39
65864;SHT30;52639;51.180;20.460;2023-03-09T07:29:53;0.54;95.88
65864;SHT30;52639;51.180;20.460;2023-03-09T07:33:56;0.54;95.75
65864;SHT30;52639;51.180;20.460;2023-03-09T07:38:00;0.58;95.60
65864;SHT30;52639;51.180;20.460;2023-03-09T07:42:04;0.64;95.70
65864;SHT30;52639;51.180;20.460;2023-03-09T07:46:07;0.65;95.55
65864;SHT30;52639;51.180;20.460;2023-03-09T07:50:11;0.68;95.37
65864;SHT30;52639;51.180;20.460;2023-03-09T07:54:15;0.71;95.08
65864;SHT30;52639;51.180;20.460;2023-03-09T07:58:19;0.69;95.11
65864;SHT30;52639;51.180;20.460;2023-03-09T08:02:23;0.75;95.16
65864;SHT30;52639;51.180;20.460;2023-03-09T08:06:26;0.73;95.05
65864;SHT30;52639;51.180;20.460;2023-03-09T08:10:30;0.72;94.88
65864;SHT30;52639;51.180;20.460;2023-03-09T08:14:34;0.66;94.48
65864;SHT30;52639;51.180;20.460;2023-03-09T08:18:38;0.62;94.63
65864;SHT30;52639;51.180;20.460;2023-03-09T08:22:41;0.58;94.67
65864;SHT30;52639;51.180;20.460;2023-03-09T08:26:46;0.55;94.92
65864;SHT30;52639;51.180;20.460;2023-03-09T08:30:49;0.58;94.98
65864;SHT30;52639;51.180;20.460;2023-03-09T08:34:54;0.61;94.76
65864;SHT30;52639;51.180;20.460;2023-03-09T08:38:58;0.57;94.73
65864;SHT30;52639;51.180;20.460;2023-03-09T08:43:06;0.58;94.88
65864;SHT30;52639;51.180;20.460;2023-03-09T08:47:13;0.62;94.79
65864;SHT30;52639;51.180;20.460;2023-03-09T08:51:18;0.66;94.80
65864;SHT30;52639;51.180;20.460;2023-03-09T08:55:24;0.71;94.23
65864;SHT30;52639;51.180;20.460;2023-03-09T08:59:30;0.72;94.15
65864;SHT30;52639;51.180;20.460;2023-03-09T09:03:34;0.76;93.88
65864;SHT30;52639;51.180;20.460;2023-03-09T09:07:39;0.78;93.90
65864;SHT30;52639;51.180;20.460;2023-03-09T09:11:42;0.78;94.30
65864;SHT30;52639;51.180;20.460;2023-03-09T09:15:52;0.73;94.25
65864;SHT30;52639;51.180;20.460;2023-03-09T09:19:55;0.76;94.05
65864;SHT30;52639;51.180;20.460;2023-03-09T09:23:58;0.79;93.85
65864;SHT30;52639;51.180;20.460;2023-03-09T09:28:01;0.78;94.15
65864;SHT30;52639;51.180;20.460;2023-03-09T09:32:05;0.81;93.68
65864;SHT30;52639;51.180;20.460;2023-03-09T09:36:12;0.76;93.54
65864;SHT30;52639;51.180;20.460;2023-03-09T09:40:16;0.78;93.79
65864;SHT30;52639;51.180;20.460;2023-03-09T09:44:22;0.79;93.80
65864;SHT30;52639;51.180;20.460;2023-03-09T09:48:29;0.73;94.38
65864;SHT30;52639;51.180;20.460;2023-03-09T09:52:40;0.76;94.06
65864;SHT30;52639;51.180;20.460;2023-03-09T09:56:51;0.76;94.36
65864;SHT30;52639;51.180;20.460;2023-03-09T10:00:55;0.78;94.25
65864;SHT30;52639;51.180;20.460;2023-03-09T10:05:03;0.93;93.97
65864;SHT30;52639;51.180;20.460;2023-03-09T10:09:11;0.93;94.21
65864;SHT30;52639;51.180;20.460;2023-03-09T10:13:27;1.02;94.29
65864;SHT30;52639;51.180;20.460;2023-03-09T10:17:34;1.17;93.68
65864;SHT30;52639;51.180;20.460;2023-03-09T10:21:46;1.32;93.67
65864;SHT30;52639;51.180;20.460;2023-03-09T10:25:54;1.35;93.78
65864;SHT30;52639;51.180;20.460;2023-03-09T10:30:04;1.23;92.94
65864;SHT30;52639;51.180;20.460;2023-03-09T10:34:14;1.07;93.37
65864;SHT30;52639;51.180;20.460;2023-03-09T10:38:21;1.07;93.60
65864;SHT30;52639;51.180;20.460;2023-03-09T10:42:26;1.12;93.65
65864;SHT30;52639;51.180;20.460;2023-03-09T10:46:30;1.36;93.46
65864;SHT30;52639;51.180;20.460;2023-03-09T10:50:35;1.23;93.53
65864;SHT30;52639;51.180;20.460;2023-03-09T10:54:40;1.32;93.74
65864;SHT30;52639;51.180;20.460;2023-03-09T10:58:43;1.25;93.61
65864;SHT30;52639;51.180;20.460;2023-03-09T11:02:51;1.26;93.31
65864;SHT30;52639;51.180;20.460;2023-03-09T11:06:55;1.25;93.65
65864;SHT30;52639;51.180;20.460;2023-03-09T11:11:05;1.27;93.77
65864;SHT30;52639;51.180;20.460;2023-03-09T11:15:24;1.32;93.26
65864;SHT30;52639;51.180;20.460;2023-03-09T11:19:29;1.25;93.63
65864;SHT30;52639;51.180;20.460;2023-03-09T11:23:36;1.25;93.65
65864;SHT30;52639;51.180;20.460;2023-03-09T11:27:45;1.23;93.87
65864;SHT30;52639;51.180;20.460;2023-03-09T11:31:50;1.26;93.84
65864;SHT30;52639;51.180;20.460;2023-03-09T11:35:54;1.23;93.66
65864;SHT30;52639;51.180;20.460;2023-03-09T11:39:59;1.33;93.24
65864;SHT30;52639;51.180;20.460;2023-03-09T11:44:08;1.23;93.48
65864;SHT30;52639;51.180;20.460;2023-03-09T11:48:20;1.19;93.83
65864;SHT30;52639;51.180;20.460;2023-03-09T11:52:28;1.02;93.76
65864;SHT30;52639;51.180;20.460;2023-03-09T11:56:34;1.05;93.69
65864;SHT30;52639;51.180;20.460;2023-03-09T12:00:44;0.96;93.85
65864;SHT30;52639;51.180;20.460;2023-03-09T12:04:49;0.93;94.02
65864;SHT30;52639;51.180;20.460;2023-03-09T12:08:54;0.73;94.38
65864;SHT30;52639;51.180;20.460;2023-03-09T12:13:00;0.66;94.58
65864;SHT30;52639;51.180;20.460;2023-03-09T12:17:17;0.64;94.29
65864;SHT30;52639;51.180;20.460;2023-03-09T12:21:27;0.58;94.92
65864;SHT30;52639;51.180;20.460;2023-03-09T12:25:31;0.58;94.72
65864;SHT30;52639;51.180;20.460;2023-03-09T12:29:37;0.62;94.52
65864;SHT30;52639;51.180;20.460;2023-03-09T12:38:23;1.02;93.64
65864;SHT30;52639;51.180;20.460;2023-03-09T12:42:34;0.92;93.89
65864;SHT30;52639;51.180;20.460;2023-03-09T12:46:49;0.85;93.83
65864;SHT30;52639;51.180;20.460;2023-03-09T12:50:58;0.85;93.94
65864;SHT30;52639;51.180;20.460;2023-03-09T12:55:18;0.88;93.98
65864;SHT30;52639;51.180;20.460;2023-03-09T12:59:25;0.79;93.66
65864;SHT30;52639;51.180;20.460;2023-03-09T13:03:32;0.76;94.13
65864;SHT30;52639;51.180;20.460;2023-03-09T13:07:38;0.86;94.17
65864;SHT30;52639;51.180;20.460;2023-03-09T13:11:45;1.15;93.29
65864;SHT30;52639;51.180;20.460;2023-03-09T13:15:48;1.10;93.07
65864;SHT30;52639;51.180;20.460;2023-03-09T13:19:53;1.16;93.51
65864;SHT30;52639;51.180;20.460;2023-03-09T13:23:56;1.03;93.36
65864;SHT30;52639;51.180;20.460;2023-03-09T13:28:15;1.12;92.98
65864;SHT30;52639;51.180;20.460;2023-03-09T13:32:24;1.02;93.35
65864;SHT30;52639;51.180;20.460;2023-03-09T13:36:29;0.96;93.32
65864;SHT30;52639;51.180;20.460;2023-03-09T13:40:35;0.76;93.78
65864;SHT30;52639;51.180;20.460;2023-03-09T13:44:45;0.66;93.91
65864;SHT30;52639;51.180;20.460;2023-03-09T13:48:49;0.62;93.75
65864;SHT30;52639;51.180;20.460;2023-03-09T13:52:59;0.66;93.66
65864;SHT30;52639;51.180;20.460;2023-03-09T13:57:10;0.66;93.23
65864;SHT30;52639;51.180;20.460;2023-03-09T14:01:24;0.73;93.22
65864;SHT30;52639;51.180;20.460;2023-03-09T14:05:29;0.68;93.16
65864;SHT30;52639;51.180;20.460;2023-03-09T14:09:34;0.72;93.02
65864;SHT30;52639;51.180;20.460;2023-03-09T14:13:44;0.69;92.51
65864;SHT30;52639;51.180;20.460;2023-03-09T14:17:51;0.71;92.82
65864;SHT30;52639;51.180;20.460;2023-03-09T14:21:56;0.64;92.99
65864;SHT30;52639;51.180;20.460;2023-03-09T14:26:00;0.61;93.10
65864;SHT30;52639;51.180;20.460;2023-03-09T14:30:33;0.60;92.52
65864;SHT30;52639;51.180;20.460;2023-03-09T14:34:44;0.57;93.03
65864;SHT30;52639;51.180;20.460;2023-03-09T14:38:54;0.50;92.46
65864;SHT30;52639;51.180;20.460;2023-03-09T14:43:25;0.42;92.95
65864;SHT30;52639;51.180;20.460;2023-03-09T14:47:34;0.51;93.07
65864;SHT30;52639;51.180;20.460;2023-03-09T14:51:41;0.42;92.88
65864;SHT30;52639;51.180;20.460;2023-03-09T14:55:45;0.32;93.14
65864;SHT30;52639;51.180;20.460;2023-03-09T14:59:48;0.37;93.04
65864;SHT30;52639;51.180;20.460;2023-03-09T15:03:51;0.22;93.36
65864;SHT30;52639;51.180;20.460;2023-03-09T15:07:55;0.22;93.43
65864;SHT30;52639;51.180;20.460;2023-03-09T15:12:02;0.13;94.12
65864;SHT30;52639;51.180;20.460;2023-03-09T15:16:05;0.11;94.11
65864;SHT30;52639;51.180;20.460;2023-03-09T15:20:16;0.15;93.81
65864;SHT30;52639;51.180;20.460;2023-03-09T15:24:30;0.20;93.55
65864;SHT30;52639;51.180;20.460;2023-03-09T15:28:33;0.13;94.07
65864;SHT30;52639;51.180;20.460;2023-03-09T15:32:37;0.15;93.90
65864;SHT30;52639;51.180;20.460;2023-03-09T15:36:42;0.08;94.50
65864;SHT30;52639;51.180;20.460;2023-03-09T15:40:47;0.08;94.08
65864;SHT30;52639;51.180;20.460;2023-03-09T15:44:50;0.03;94.64
65864;SHT30;52639;51.180;20.460;2023-03-09T15:48:53;0.06;94.01
65864;SHT30;52639;51.180;20.460;2023-03-09T15:52:56;0.06;93.71
65864;SHT30;52639;51.180;20.460;2023-03-09T15:57:00;0.06;93.44
65864;SHT30;52639;51.180;20.460;2023-03-09T16:01:06;0.04;93.13
65864;SHT30;52639;51.180;20.460;2023-03-09T16:05:10;0.00;93.64
65864;SHT30;52639;51.180;20.460;2023-03-09T16:09:13;0.03;93.45
65864;SHT30;52639;51.180;20.460;2023-03-09T16:13:18;-0.02;93.26
65864;SHT30;52639;51.180;20.460;2023-03-09T16:17:21;-0.09;93.94
65864;SHT30;52639;51.180;20.460;2023-03-09T16:21:24;-0.04;93.88
65864;SHT30;52639;51.180;20.460;2023-03-09T16:25:27;-0.06;93.66
65864;SHT30;52639;51.180;20.460;2023-03-09T16:29:32;-0.10;93.75
65864;SHT30;52639;51.180;20.460;2023-03-09T16:33:35;-0.07;93.51
65864;SHT30;52639;51.180;20.460;2023-03-09T16:37:38;-0.09;93.33
65864;SHT30;52639;51.180;20.460;2023-03-09T16:41:41;-0.06;93.10
65864;SHT30;52639;51.180;20.460;2023-03-09T16:45:51;-0.06;92.71
65864;SHT30;52639;51.180;20.460;2023-03-09T16:50:00;-0.04;92.90
65864;SHT30;52639;51.180;20.460;2023-03-09T16:54:04;-0.06;92.99
65864;SHT30;52639;51.180;20.460;2023-03-09T16:58:08;-0.07;93.97
65864;SHT30;52639;51.180;20.460;2023-03-09T17:02:13;-0.09;93.63
65864;SHT30;52639;51.180;20.460;2023-03-09T17:06:20;-0.07;94.16
65864;SHT30;52639;51.180;20.460;2023-03-09T17:10:24;-0.06;93.27
65864;SHT30;52639;51.180;20.460;2023-03-09T17:14:29;-0.11;93.27
65864;SHT30;52639;51.180;20.460;2023-03-09T17:18:35;-0.10;93.34
65864;SHT30;52639;51.180;20.460;2023-03-09T17:22:39;-0.11;93.34
65864;SHT30;52639;51.180;20.460;2023-03-09T17:26:42;-0.11;93.08
65864;SHT30;52639;51.180;20.460;2023-03-09T17:30:45;-0.07;92.92
65864;SHT30;52639;51.180;20.460;2023-03-09T17:34:51;-0.07;92.60
65864;SHT30;52639;51.180;20.460;2023-03-09T17:38:54;-0.11;93.71
65864;SHT30;52639;51.180;20.460;2023-03-09T17:42:58;-0.14;93.72
65864;SHT30;52639;51.180;20.460;2023-03-09T17:47:02;-0.13;93.82
65864;SHT30;52639;51.180;20.460;2023-03-09T17:51:11;-0.16;93.06
65864;SHT30;52639;51.180;20.460;2023-03-09T17:55:16;-0.16;93.39
65864;SHT30;52639;51.180;20.460;2023-03-09T17:59:19;-0.17;93.15
65864;SHT30;52639;51.180;20.460;2023-03-09T18:03:23;-0.17;93.18
65864;SHT30;52639;51.180;20.460;2023-03-09T18:07:29;-0.13;92.94
65864;SHT30;52639;51.180;20.460;2023-03-09T18:11:34;-0.18;92.95
65864;SHT30;52639;51.180;20.460;2023-03-09T18:15:38;-0.17;92.98
65864;SHT30;52639;51.180;20.460;2023-03-09T18:19:43;-0.17;93.38
65864;SHT30;52639;51.180;20.460;2023-03-09T18:23:50;-0.16;92.75
65864;SHT30;52639;51.180;20.460;2023-03-09T18:27:55;-0.18;92.95
65864;SHT30;52639;51.180;20.460;2023-03-09T18:32:00;-0.17;94.05
65864;SHT30;52639;51.180;20.460;2023-03-09T18:36:08;-0.18;93.67
65864;SHT30;52639;51.180;20.460;2023-03-09T18:40:18;-0.17;93.83
65864;SHT30;52639;51.180;20.460;2023-03-09T18:44:26;-0.23;94.11
65864;SHT30;52639;51.180;20.460;2023-03-09T18:48:34;-0.21;93.71
65864;SHT30;52639;51.180;20.460;2023-03-09T18:52:40;-0.21;94.79
65864;SHT30;52639;51.180;20.460;2023-03-09T18:56:47;-0.23;94.20
65864;SHT30;52639;51.180;20.460;2023-03-09T19:00:54;-0.24;94.12
65864;SHT30;52639;51.180;20.460;2023-03-09T19:04:59;-0.24;94.27
65864;SHT30;52639;51.180;20.460;2023-03-09T19:09:09;-0.27;94.42
65864;SHT30;52639;51.180;20.460;2023-03-09T19:13:16;-0.24;94.72
65864;SHT30;52639;51.180;20.460;2023-03-09T19:17:21;-0.23;94.32
65864;SHT30;52639;51.180;20.460;2023-03-09T19:21:26;-0.26;94.34
65864;SHT30;52639;51.180;20.460;2023-03-09T19:25:33;-0.23;93.85
65864;SHT30;52639;51.180;20.460;2023-03-09T19:29:40;-0.23;93.41
65864;SHT30;52639;51.180;20.460;2023-03-09T19:33:55;-0.23;93.99
65864;SHT30;52639;51.180;20.460;2023-03-09T19:38:01;-0.24;93.63
65864;SHT30;52639;51.180;20.460;2023-03-09T19:42:09;-0.20;93.76
65864;SHT30;52639;51.180;20.460;2023-03-09T19:46:16;-0.21;94.94
65864;SHT30;52639;51.180;20.460;2023-03-09T19:50:21;-0.21;94.59
65864;SHT30;52639;51.180;20.460;2023-03-09T19:54:30;-0.20;95.41
65864;SHT30;52639;51.180;20.460;2023-03-09T19:58:38;-0.21;95.55
65864;SHT30;52639;51.180;20.460;2023-03-09T20:03:26;-0.18;95.43
65864;SHT30;52639;51.180;20.460;2023-03-09T20:07:33;-0.17;96.27
65864;SHT30;52639;51.180;20.460;2023-03-09T20:11:44;-0.14;95.59
65864;SHT30;52639;51.180;20.460;2023-03-09T20:15:58;-0.17;95.71
65864;SHT30;52639;51.180;20.460;2023-03-09T20:20:06;-0.18;96.11
65864;SHT30;52639;51.180;20.460;2023-03-09T20:24:14;-0.16;96.15
65864;SHT30;52639;51.180;20.460;2023-03-09T20:28:24;-0.18;96.38
65864;SHT30;52639;51.180;20.460;2023-03-09T20:32:28;-0.17;95.72
65864;SHT30;52639;51.180;20.460;2023-03-09T20:36:35;-0.16;95.88
65864;SHT30;52639;51.180;20.460;2023-03-09T20:40:40;-0.14;95.36
65864;SHT30;52639;51.180;20.460;2023-03-09T20:44:45;-0.17;95.19
65864;SHT30;52639;51.180;20.460;2023-03-09T20:48:52;-0.17;95.44
65864;SHT30;52639;51.180;20.460;2023-03-09T20:53:05;-0.17;95.03
65864;SHT30;52639;51.180;20.460;2023-03-09T20:57:10;-0.17;95.76
65864;SHT30;52639;51.180;20.460;2023-03-09T21:01:21;-0.18;95.77
65864;SHT30;52639;51.180;20.460;2023-03-09T21:05:27;-0.16;95.72
65864;SHT30;52639;51.180;20.460;2023-03-09T21:09:33;-0.18;95.57
65864;SHT30;52639;51.180;20.460;2023-03-09T21:13:41;-0.20;95.68
65864;SHT30;52639;51.180;20.460;2023-03-09T21:17:45;-0.21;96.12
65864;SHT30;52639;51.180;20.460;2023-03-09T21:21:51;-0.21;96.35
65864;SHT30;52639;51.180;20.460;2023-03-09T21:26:04;-0.20;96.17
65864;SHT30;52639;51.180;20.460;2023-03-09T21:30:11;-0.18;95.73
65864;SHT30;52639;51.180;20.460;2023-03-09T21:34:15;-0.16;95.45
65864;SHT30;52639;51.180;20.460;2023-03-09T21:38:18;-0.17;95.24
65864;SHT30;52639;51.180;20.460;2023-03-09T21:42:26;-0.17;95.18
65864;SHT30;52639;51.180;20.460;2023-03-09T21:46:29;-0.16;95.50
65864;SHT30;52639;51.180;20.460;2023-03-09T21:50:33;-0.14;95.30
65864;SHT30;52639;51.180;20.460;2023-03-09T21:54:36;-0.13;94.90
65864;SHT30;52639;51.180;20.460;2023-03-09T21:58:40;-0.09;94.45
65864;SHT30;52639;51.180;20.460;2023-03-09T22:02:43;-0.09;94.67
65864;SHT30;52639;51.180;20.460;2023-03-09T22:06:47;-0.06;94.39
65864;SHT30;52639;51.180;20.460;2023-03-09T22:10:49;-0.07;94.06
65864;SHT30;52639;51.180;20.460;2023-03-09T22:14:54;-0.04;94.18
65864;SHT30;52639;51.180;20.460;2023-03-09T22:19:00;0.00;94.01
65864;SHT30;52639;51.180;20.460;2023-03-09T22:23:03;0.00;94.07
65864;SHT30;52639;51.180;20.460;2023-03-09T22:27:06;0.00;94.85
65864;SHT30;52639;51.180;20.460;2023-03-09T22:31:12;0.03;94.28
65864;SHT30;52639;51.180;20.460;2023-03-09T22:35:15;0.01;94.59
65864;SHT30;52639;51.180;20.460;2023-03-09T22:39:18;0.01;94.51
65864;SHT30;52639;51.180;20.460;2023-03-09T22:43:21;0.03;94.18
65864;SHT30;52639;51.180;20.460;2023-03-09T22:47:25;0.01;93.59
65864;SHT30;52639;51.180;20.460;2023-03-09T22:51:29;0.03;94.37
65864;SHT30;52639;51.180;20.460;2023-03-09T22:55:32;0.06;94.26
65864;SHT30;52639;51.180;20.460;2023-03-09T22:59:35;0.08;93.77
65864;SHT30;52639;51.180;20.460;2023-03-09T23:03:43;0.08;93.96
65864;SHT30;52639;51.180;20.460;2023-03-09T23:07:46;0.13;93.98
65864;SHT30;52639;51.180;20.460;2023-03-09T23:11:50;0.14;93.47
65864;SHT30;52639;51.180;20.460;2023-03-09T23:15:52;0.17;94.92
65864;SHT30;52639;51.180;20.460;2023-03-09T23:19:57;0.15;94.97
65864;SHT30;52639;51.180;20.460;2023-03-09T23:24:00;0.17;94.76
65864;SHT30;52639;51.180;20.460;2023-03-09T23:28:03;0.21;94.42
65864;SHT30;52639;51.180;20.460;2023-03-09T23:32:06;0.22;93.99
65864;SHT30;52639;51.180;20.460;2023-03-09T23:36:11;0.22;94.52
65864;SHT30;52639;51.180;20.460;2023-03-09T23:40:17;0.24;94.29
65864;SHT30;52639;51.180;20.460;2023-03-09T23:44:20;0.25;94.46
65864;SHT30;52639;51.180;20.460;2023-03-09T23:48:23;0.25;94.22
65864;SHT30;52639;51.180;20.460;2023-03-09T23:52:28;0.22;94.44
65864;SHT30;52639;51.180;20.460;2023-03-09T23:56:31;0.25;94.27
